Main page
METAR-TAF:

METAR-TAF

Airports :

Capital City Airport

Harrisburg, Pennsylvania, United States

latitude: 40-13-02N, longitude: 076-51-05W, elevation: 348 ft

Current weather observation

The report was made 28 minutes ago, at 21:56 UTC
Wind 12 mph from the North
Temperature 55°F
Humidity 44%
Pressure 29.79 in. Hg
Visibility: 10 miles
Few clouds at a height of 4400 ft

METAR: KCXY 012156Z 35010KT 10SM FEW044 13/01 A2979 RMK AO2 SLP088 T01330006

Time: 18:24 (22:24 UTC)


TAF: missing

Weather observations and forecasts of more than 4000 airports (METAR and TAF reports).

The available stations are represented by yellow and red dots on the map.

Hover mouse over dot to see the name of the station.

Then click to see weather observations and forecasts.

To change the map : click on the green buttons with a black cross to zoom in, on the green button with a dash to zoom out, or on the green arrows for adjacent maps.


METAR-TAF: